Time;durP1;ratioP1;P1;durP2;ratioP2;P2;SDS_P1;SDS_P2;PMS_P1;PMS_P2;Temp;Humidity;BMP_temperature;BMP_pressure;BME280_temperature;BME280_humidity;BME280_pressure;Samples;Min_cycle;Max_cycle;Signal;HPM_P1;HPM_P2
2022/09/21 00:00:45;;;;;;;6.15;3.20;;;9.10;99.90;;;;;;5060667;28;20040;-69
2022/09/21 00:03:11;;;;;;;9.50;3.70;;;9.10;99.90;;;;;;5052909;28;20052;-69
2022/09/21 00:05:37;;;;;;;8.30;3.75;;;9.00;99.90;;;;;;5068117;28;20039;-72
2022/09/21 00:08:05;;;;;;;11.02;3.85;;;9.00;99.90;;;;;;5068460;28;20033;-70
2022/09/21 00:10:31;;;;;;;;;;;9.00;99.90;;;;;;5056002;28;20115;-70
2022/09/21 00:12:59;;;;;;;14.18;3.42;;;9.00;99.90;;;;;;5028331;28;21105;-69
2022/09/21 00:15:25;;;;;;;33.03;4.22;;;9.00;99.90;;;;;;5068291;28;20540;-69
2022/09/21 00:17:55;;;;;;;7.32;3.33;;;9.00;99.90;;;;;;5071728;28;20041;-71
2022/09/21 00:20:23;;;;;;;8.50;3.00;;;8.90;99.90;;;;;;5060320;28;20045;-71
2022/09/21 00:22:50;;;;;;;11.82;3.50;;;8.90;99.90;;;;;;5075033;28;20115;-70
2022/09/21 00:25:18;;;;;;;17.88;3.88;;;8.90;99.90;;;;;;5060900;28;20041;-70
2022/09/21 00:27:45;;;;;;;12.43;4.03;;;8.90;99.90;;;;;;5067308;28;20059;-70
2022/09/21 00:30:11;;;;;;;15.48;3.75;;;8.90;99.90;;;;;;5069428;28;20067;-70
2022/09/21 00:32:38;;;;;;;10.98;3.58;;;8.90;99.90;;;;;;5062238;28;20490;-70
2022/09/21 00:35:06;;;;;;;12.80;3.80;;;8.90;99.90;;;;;;5073598;28;20479;-70
2022/09/21 00:37:33;;;;;;;16.70;3.75;;;8.90;99.90;;;;;;5068261;28;20570;-70
2022/09/21 00:39:59;;;;;;;8.52;3.20;;;8.90;99.90;;;;;;5066540;28;20506;-70
2022/09/21 00:42:31;;;;;;;10.20;3.30;;;8.80;99.90;;;;;;5050907;28;20040;-71
2022/09/21 00:44:57;;;;;;;11.25;3.28;;;8.80;99.90;;;;;;5068202;28;20072;-70
2022/09/21 00:47:38;;;;;;;9.75;3.25;;;8.80;99.90;;;;;;5067221;28;20037;-71
2022/09/21 00:50:12;;;;;;;12.18;3.42;;;8.80;99.90;;;;;;5062959;28;20044;-69
2022/09/21 00:52:42;;;;;;;11.57;3.90;;;8.80;99.90;;;;;;5065478;28;20047;-70
2022/09/21 00:55:18;;;;;;;11.27;3.70;;;8.80;99.90;;;;;;5059481;28;20046;-70
2022/09/21 00:57:48;;;;;;;7.60;3.75;;;8.80;99.90;;;;;;5067882;28;20507;-71
2022/09/21 01:00:14;;;;;;;10.60;4.80;;;8.80;99.90;;;;;;5069813;28;20113;-70
2022/09/21 01:02:39;;;;;;;14.07;5.80;;;8.70;99.90;;;;;;5060530;28;20076;-73
2022/09/21 01:05:07;;;;;;;14.77;5.45;;;8.70;99.90;;;;;;5067345;28;20040;-69
2022/09/21 01:07:36;;;;;;;12.52;6.13;;;8.70;99.90;;;;;;5062011;28;20052;-70
2022/09/21 01:10:17;;;;;;;20.05;6.95;;;8.70;99.90;;;;;;5027943;28;20075;-70
2022/09/21 01:13:01;;;;;;;16.98;5.95;;;8.60;99.90;;;;;;5061327;28;20098;-70
2022/09/21 01:15:39;;;;;;;15.50;6.60;;;8.60;99.90;;;;;;5053272;28;20040;-69
2022/09/21 01:18:21;;;;;;;11.88;5.32;;;8.60;99.90;;;;;;5071115;28;20560;-70
2022/09/21 01:21:11;;;;;;;13.77;5.90;;;8.60;99.90;;;;;;5061612;28;20104;-70
2022/09/21 01:23:42;;;;;;;9.90;5.30;;;8.60;99.90;;;;;;5062726;28;20490;-70
2022/09/21 01:26:38;;;;;;;12.50;5.70;;;8.60;99.90;;;;;;5058405;28;20040;-69
2022/09/21 01:29:28;;;;;;;12.73;5.18;;;8.60;99.90;;;;;;5074991;28;20044;-69
2022/09/21 01:31:59;;;;;;;13.70;6.03;;;8.60;99.90;;;;;;5067310;28;20135;-72
2022/09/21 01:34:35;;;;;;;16.77;6.70;;;8.60;99.90;;;;;;5058609;28;20100;-72
2022/09/21 01:37:11;;;;;;;15.40;5.82;;;8.60;99.90;;;;;;5120263;22;20044;-69
2022/09/21 01:39:40;;;;;;;13.20;5.38;;;8.60;99.90;;;;;;5067404;28;20044;-70
2022/09/21 01:42:07;;;;;;;9.20;5.03;;;8.60;99.90;;;;;;5072125;28;20115;-69
2022/09/21 01:44:36;;;;;;;11.65;6.53;;;8.60;99.90;;;;;;5086643;28;20535;-71
2022/09/21 01:47:06;;;;;;;11.68;5.20;;;8.60;99.90;;;;;;5082397;28;20052;-70
2022/09/21 01:49:45;;;;;;;12.05;5.85;;;8.60;99.90;;;;;;5086779;28;20079;-70
2022/09/21 01:52:33;;;;;;;10.27;5.47;;;8.60;99.90;;;;;;5044439;28;20044;-69
2022/09/21 01:55:15;;;;;;;14.37;5.53;;;8.50;99.90;;;;;;5059734;28;20105;-68
2022/09/21 01:57:58;;;;;;;18.70;6.78;;;8.50;99.90;;;;;;5065377;28;20047;-69
2022/09/21 02:00:25;;;;;;;8.70;5.57;;;8.50;99.90;;;;;;5064661;28;20060;-69
2022/09/21 02:02:57;;;;;;;16.98;6.28;;;8.50;99.90;;;;;;5084711;28;20468;-70
2022/09/21 02:05:26;;;;;;;15.32;5.22;;;8.50;99.90;;;;;;5056472;28;20047;-69
2022/09/21 02:07:53;;;;;;;13.70;5.32;;;8.50;99.90;;;;;;5064323;28;20508;-69
2022/09/21 02:10:25;;;;;;;10.30;5.30;;;8.40;99.90;;;;;;5054820;28;20040;-70
2022/09/21 02:12:58;;;;;;;19.25;5.65;;;8.40;99.90;;;;;;5078127;28;20113;-69
2022/09/21 02:15:33;;;;;;;15.10;6.10;;;8.50;99.90;;;;;;5062712;28;20135;-70
2022/09/21 02:18:05;;;;;;;12.07;5.85;;;8.50;99.90;;;;;;5062404;28;20082;-69
2022/09/21 02:20:37;;;;;;;13.57;6.15;;;8.40;99.90;;;;;;5079878;28;20048;-68
2022/09/21 02:23:12;;;;;;;13.07;6.35;;;8.40;99.90;;;;;;5088705;28;20043;-70
2022/09/21 02:26:06;;;;;;;18.80;7.72;;;8.40;99.90;;;;;;5080105;28;20041;-70
2022/09/21 02:29:00;;;;;;;11.57;6.18;;;8.40;99.90;;;;;;5042262;28;20773;-69
2022/09/21 02:32:09;;;;;;;13.75;5.85;;;8.30;99.90;;;;;;5078381;28;20040;-69
2022/09/21 02:34:44;;;;;;;13.98;6.32;;;8.30;99.90;;;;;;5073237;28;20119;-68
2022/09/21 02:37:27;;;;;;;14.30;6.30;;;8.20;99.90;;;;;;5065334;28;20064;-68
2022/09/21 02:40:34;;;;;;;11.48;6.05;;;8.20;99.90;;;;;;5068988;28;20052;-69
2022/09/21 02:43:06;;;;;;;15.35;6.07;;;8.20;99.90;;;;;;5034782;28;20430;-68
2022/09/21 02:45:44;;;;;;;12.93;6.15;;;8.20;99.90;;;;;;5067332;28;20049;-69
2022/09/21 02:48:19;;;;;;;14.57;6.28;;;8.10;99.90;;;;;;5070870;28;20089;-70
2022/09/21 02:50:52;;;;;;;15.80;5.63;;;8.20;99.90;;;;;;5068323;28;20041;-70
2022/09/21 02:53:24;;;;;;;13.50;5.82;;;8.20;99.90;;;;;;5049883;28;20119;-69
2022/09/21 02:55:51;;;;;;;14.70;5.68;;;8.10;99.90;;;;;;5067618;28;20048;-68
2022/09/21 02:58:18;;;;;;;11.95;5.97;;;8.10;99.90;;;;;;5068967;28;20091;-69
2022/09/21 03:00:44;;;;;;;16.25;6.55;;;8.10;99.90;;;;;;5048526;28;20040;-68
2022/09/21 03:03:18;;;;;;;13.70;5.90;;;8.20;99.90;;;;;;5062082;28;20045;-68
2022/09/21 03:05:47;;;;;;;11.13;6.10;;;8.10;99.90;;;;;;5067150;28;20074;-69
2022/09/21 03:08:14;;;;;;;14.30;5.72;;;8.20;99.90;;;;;;5047916;28;20040;-67
2022/09/21 03:10:40;;;;;;;11.23;5.32;;;8.20;99.90;;;;;;5069481;28;20041;-71
2022/09/21 03:13:10;;;;;;;12.57;6.13;;;8.20;99.90;;;;;;5050746;28;20120;-68
2022/09/21 03:15:37;;;;;;;11.05;5.55;;;8.20;99.90;;;;;;5046236;28;20136;-70
2022/09/21 03:18:05;;;;;;;15.10;6.33;;;8.20;99.90;;;;;;5067249;28;20045;-70
2022/09/21 03:20:35;;;;;;;14.50;6.70;;;8.20;99.90;;;;;;5062777;28;20291;-68
2022/09/21 03:23:01;;;;;;;15.70;5.53;;;8.20;99.90;;;;;;5069872;28;20034;-69
2022/09/21 03:25:29;;;;;;;11.02;5.95;;;8.20;99.90;;;;;;5070510;28;20036;-71
2022/09/21 03:27:56;;;;;;;12.35;5.43;;;8.10;99.90;;;;;;5042705;28;20037;-72
2022/09/21 03:30:25;;;;;;;11.32;4.90;;;8.10;99.90;;;;;;5068462;28;21410;-69
2022/09/21 03:32:52;;;;;;;12.13;5.00;;;8.20;99.90;;;;;;5067572;28;20060;-69
2022/09/21 03:35:20;;;;;;;10.25;4.68;;;8.10;99.90;;;;;;5060558;28;20106;-70
2022/09/21 03:37:47;;;;;;;14.57;4.70;;;8.10;99.90;;;;;;5082259;28;20075;-69
2022/09/21 03:40:14;;;;;;;10.25;5.00;;;8.10;99.90;;;;;;5091977;28;20047;-70
2022/09/21 03:42:42;;;;;;;12.75;5.13;;;8.10;99.90;;;;;;5090485;28;20036;-70
2022/09/21 03:45:10;;;;;;;12.88;4.10;;;8.10;99.90;;;;;;5083593;28;20485;-71
2022/09/21 03:47:37;;;;;;;8.67;4.30;;;8.10;99.90;;;;;;5064601;28;20043;-69
2022/09/21 03:50:04;;;;;;;8.60;4.28;;;8.10;99.90;;;;;;5091698;28;20298;-69
2022/09/21 03:52:30;;;;;;;10.82;4.32;;;8.20;99.90;;;;;;5086558;28;20447;-69
2022/09/21 03:54:56;;;;;;;10.68;4.35;;;8.20;99.90;;;;;;5085460;28;20154;-68
2022/09/21 03:57:21;;;;;;;13.32;4.82;;;8.20;99.90;;;;;;5084265;28;20132;-69
2022/09/21 03:59:47;;;;;;;9.88;4.60;;;8.20;99.90;;;;;;5091933;28;20040;-69
2022/09/21 04:02:14;;;;;;;12.15;4.20;;;8.20;99.90;;;;;;5065455;28;20399;-69
2022/09/21 04:04:40;;;;;;;8.77;4.65;;;8.20;99.90;;;;;;5074044;28;20079;-69
2022/09/21 04:07:06;;;;;;;13.05;4.72;;;8.20;99.90;;;;;;5085641;28;20040;-68
2022/09/21 04:09:32;;;;;;;17.35;5.95;;;8.10;99.90;;;;;;5069300;28;20048;-69
2022/09/21 04:11:57;;;;;;;11.43;4.43;;;8.10;99.90;;;;;;5084897;28;20036;-70
2022/09/21 04:14:23;;;;;;;10.90;4.88;;;8.10;99.90;;;;;;5092601;28;20073;-68
2022/09/21 04:16:52;;;;;;;10.48;4.88;;;8.10;99.90;;;;;;5084499;28;20040;-68
2022/09/21 04:19:21;;;;;;;12.65;4.57;;;8.10;99.90;;;;;;5085136;28;20485;-69
2022/09/21 04:21:50;;;;;;;11.75;4.53;;;8.10;99.90;;;;;;5083207;28;20052;-69
2022/09/21 04:24:18;;;;;;;12.63;3.95;;;8.10;99.90;;;;;;5084608;28;20040;-70
2022/09/21 04:26:45;;;;;;;14.23;4.70;;;8.10;99.90;;;;;;5084919;28;20040;-70
2022/09/21 04:29:14;;;;;;;12.85;4.30;;;8.10;99.90;;;;;;5092118;28;20047;-69
2022/09/21 04:31:41;;;;;;;13.35;4.88;;;8.10;99.90;;;;;;5081144;28;20064;-70
2022/09/21 04:34:10;;;;;;;9.25;3.88;;;8.50;99.90;;;;;;5080097;28;20044;-68
2022/09/21 04:36:36;;;;;;;12.35;3.90;;;8.10;99.90;;;;;;5081311;28;20123;-69
2022/09/21 04:39:02;;;;;;;13.35;3.88;;;8.10;99.90;;;;;;5065270;28;20527;-70
2022/09/21 04:41:28;;;;;;;7.88;4.03;;;8.10;99.90;;;;;;5086649;28;20093;-69
2022/09/21 04:43:54;;;;;;;12.73;4.63;;;8.10;99.90;;;;;;5086068;28;20036;-69
2022/09/21 04:46:20;;;;;;;12.15;3.78;;;8.10;99.90;;;;;;5082092;28;20178;-70
2022/09/21 04:48:46;;;;;;;7.05;4.13;;;8.10;99.90;;;;;;5058482;28;20103;-69
2022/09/21 04:51:14;;;;;;;12.82;3.90;;;8.10;99.90;;;;;;5065029;28;20056;-68
2022/09/21 04:53:41;;;;;;;8.93;3.70;;;8.10;99.90;;;;;;5083878;28;20040;-68
2022/09/21 04:56:09;;;;;;;11.20;4.20;;;9.00;99.90;;;;;;5070565;28;20294;-69
2022/09/21 04:58:35;;;;;;;9.27;3.97;;;8.10;99.90;;;;;;5064410;28;20054;-69
2022/09/21 05:01:01;;;;;;;9.38;3.40;;;8.10;99.90;;;;;;5087776;28;20094;-69
2022/09/21 05:03:28;;;;;;;17.25;4.53;;;8.10;99.90;;;;;;5081331;28;20076;-68
2022/09/21 05:05:55;;;;;;;7.57;3.65;;;8.10;99.90;;;;;;5061701;28;20044;-70
2022/09/21 05:11:11;;;;;;;15.85;3.95;;;8.10;99.90;;;;;;5084913;28;20425;-69
2022/09/21 05:13:37;;;;;;;9.50;3.78;;;8.10;99.90;;;;;;5077757;28;20182;-69
2022/09/21 05:16:04;;;;;;;9.82;3.67;;;8.10;99.90;;;;;;5080188;28;20044;-69
2022/09/21 05:18:30;;;;;;;9.35;3.45;;;8.10;99.90;;;;;;5091592;28;20047;-69
2022/09/21 05:20:57;;;;;;;9.93;3.50;;;8.10;99.90;;;;;;5061389;28;20057;-69
2022/09/21 05:23:23;;;;;;;6.88;3.30;;;8.10;99.90;;;;;;5077792;28;20444;-70
2022/09/21 05:25:50;;;;;;;8.65;3.53;;;8.10;99.90;;;;;;5076378;28;20868;-68
2022/09/21 05:28:17;;;;;;;7.32;3.60;;;8.00;99.90;;;;;;5083556;28;20036;-69
2022/09/21 05:30:54;;;;;;;9.27;3.60;;;8.10;99.90;;;;;;5083048;28;20043;-69
2022/09/21 05:33:21;;;;;;;8.88;3.72;;;8.10;99.90;;;;;;5079138;28;20391;-67
2022/09/21 05:36:16;;;;;;;8.48;3.85;;;8.00;99.90;;;;;;5058045;28;20056;-67
2022/09/21 05:38:42;;;;;;;7.97;3.58;;;8.10;99.90;;;;;;5083635;28;20048;-69
2022/09/21 05:41:08;;;;;;;14.18;3.40;;;8.10;99.90;;;;;;5076493;28;20041;-68
2022/09/21 05:43:34;;;;;;;7.45;3.72;;;8.10;99.90;;;;;;5077578;28;20040;-68
2022/09/21 05:46:19;;;;;;;10.25;4.40;;;8.10;99.90;;;;;;5080730;28;20040;-68
2022/09/21 05:49:20;;;;;;;7.65;3.33;;;8.10;99.90;;;;;;5088493;28;20078;-69
2022/09/21 05:52:15;;;;;;;11.57;3.38;;;8.10;99.90;;;;;;5055475;28;20048;-67
2022/09/21 05:55:02;;;;;;;8.18;3.47;;;8.10;99.90;;;;;;5084855;28;20093;-69
2022/09/21 05:57:49;;;;;;;7.82;3.03;;;8.10;99.90;;;;;;5080363;28;20397;-67
2022/09/21 06:00:21;;;;;;;8.98;3.70;;;8.20;99.90;;;;;;5093145;28;20032;-70
2022/09/21 06:02:46;;;;;;;9.55;3.45;;;8.10;99.90;;;;;;5068623;28;20125;-67
2022/09/21 06:05:14;;;;;;;9.02;3.30;;;8.20;99.90;;;;;;5090466;28;20044;-70
2022/09/21 06:07:40;;;;;;;6.65;2.83;;;8.20;99.90;;;;;;5073905;28;20055;-68
2022/09/21 06:10:08;;;;;;;11.40;3.70;;;8.20;99.90;;;;;;5090830;28;20382;-67
2022/09/21 06:12:33;;;;;;;7.40;3.20;;;8.30;99.90;;;;;;5086531;28;20516;-67
2022/09/21 06:14:59;;;;;;;9.75;3.25;;;8.30;99.90;;;;;;5090654;28;20040;-69
2022/09/21 06:17:26;;;;;;;10.70;4.15;;;8.30;99.90;;;;;;5073027;28;20051;-69
2022/09/21 06:19:54;;;;;;;7.65;3.85;;;8.30;99.90;;;;;;5092403;28;20044;-67
2022/09/21 06:22:20;;;;;;;7.63;3.40;;;8.30;99.90;;;;;;5088396;28;20044;-67
2022/09/21 06:24:46;;;;;;;10.15;3.60;;;8.40;99.90;;;;;;5084358;28;20040;-66
2022/09/21 06:27:11;;;;;;;8.93;3.80;;;8.40;99.90;;;;;;5094634;28;20064;-68
2022/09/21 06:29:37;;;;;;;6.63;3.33;;;8.40;99.90;;;;;;5074930;28;20032;-69
2022/09/21 06:32:03;;;;;;;9.98;3.88;;;8.50;99.90;;;;;;5090703;28;20043;-69
2022/09/21 06:34:29;;;;;;;11.18;4.30;;;8.50;99.90;;;;;;5091423;28;20052;-68
2022/09/21 06:36:55;;;;;;;6.97;3.67;;;8.90;99.90;;;;;;5093189;28;20068;-70
2022/09/21 06:39:22;;;;;;;9.80;4.15;;;8.70;99.90;;;;;;5089788;28;20036;-69
2022/09/21 06:41:48;;;;;;;10.13;3.90;;;8.80;99.90;;;;;;5078777;28;20048;-69
2022/09/21 06:44:14;;;;;;;10.90;3.90;;;9.20;99.90;;;;;;5076955;28;20044;-69
2022/09/21 06:46:39;;;;;;;19.85;4.30;;;9.60;99.90;;;;;;5076332;28;20037;-69
2022/09/21 06:49:05;;;;;;;9.52;3.72;;;10.10;99.90;;;;;;5076458;28;20493;-68
2022/09/21 06:51:31;;;;;;;11.93;3.55;;;10.60;99.90;;;;;;5076479;28;20488;-68
2022/09/21 06:53:57;;;;;;;8.65;3.47;;;10.90;99.90;;;;;;5080085;28;20493;-69
2022/09/21 06:56:24;;;;;;;11.50;3.65;;;11.00;99.90;;;;;;5090255;28;20052;-69
2022/09/21 06:58:51;;;;;;;9.15;3.60;;;11.00;99.90;;;;;;5078161;28;20043;-67
2022/09/21 07:01:17;;;;;;;6.97;3.38;;;11.10;99.90;;;;;;5075243;28;20048;-69
2022/09/21 07:03:44;;;;;;;11.65;3.70;;;11.10;99.90;;;;;;5098887;28;20476;-72
2022/09/21 07:06:12;;;;;;;7.43;3.60;;;11.10;99.90;;;;;;5113732;28;20024;-71
2022/09/21 07:08:42;;;;;;;9.73;3.60;;;11.10;99.90;;;;;;5119243;28;20039;-73
2022/09/21 07:11:08;;;;;;;10.07;3.15;;;11.10;99.90;;;;;;5094744;28;20058;-71
2022/09/21 07:13:34;;;;;;;12.25;3.45;;;11.20;99.90;;;;;;5113810;28;20032;-73
2022/09/21 07:16:08;;;;;;;10.38;3.42;;;11.20;99.90;;;;;;5118392;28;20032;-70
2022/09/21 07:18:34;;;;;;;10.73;3.80;;;11.30;99.90;;;;;;5101965;28;20036;-69
2022/09/21 07:21:08;;;;;;;7.90;3.30;;;11.40;99.90;;;;;;5075195;28;20036;-70
2022/09/21 07:23:35;;;;;;;7.95;3.17;;;11.60;99.90;;;;;;5109149;28;20043;-71
2022/09/21 07:26:11;;;;;;;9.10;3.17;;;11.60;99.90;;;;;;5109899;28;20096;-72
2022/09/21 07:28:37;;;;;;;15.13;2.88;;;11.70;99.90;;;;;;5113188;28;20032;-71
2022/09/21 07:31:14;;;;;;;10.10;3.17;;;11.80;99.90;;;;;;5113496;28;20063;-68
2022/09/21 07:33:41;;;;;;;12.57;3.55;;;11.90;99.90;;;;;;5097199;28;20093;-71
2022/09/21 07:36:11;;;;;;;6.75;2.85;;;12.00;99.90;;;;;;5099330;28;20100;-69
2022/09/21 07:38:38;;;;;;;12.60;3.25;;;12.20;99.90;;;;;;5079203;28;20035;-68
2022/09/21 07:41:05;;;;;;;13.40;3.17;;;12.30;99.90;;;;;;5113538;28;20027;-72
2022/09/21 07:43:32;;;;;;;8.55;2.97;;;12.40;99.90;;;;;;5118501;28;20038;-70
2022/09/21 07:46:00;;;;;;;16.80;2.92;;;12.50;99.90;;;;;;5118073;28;20020;-71
2022/09/21 07:48:27;;;;;;;;;;;12.70;99.90;;;;;;5110304;28;20024;-69
2022/09/21 07:50:53;;;;;;;11.55;2.80;;;12.90;99.90;;;;;;5108192;28;19941;-69
2022/09/21 07:53:19;;;;;;;10.25;2.65;;;13.00;99.90;;;;;;5113278;28;20024;-71
2022/09/21 07:55:45;;;;;;;10.13;3.17;;;13.30;99.90;;;;;;5113346;28;20078;-70
2022/09/21 08:00:55;;;;;;;8.75;2.78;;;13.40;99.90;;;;;;5106111;28;20040;-69
2022/09/21 08:03:21;;;;;;;13.35;2.63;;;13.50;99.90;;;;;;5096498;28;20075;-68
2022/09/21 08:05:46;;;;;;;14.38;2.60;;;13.70;99.90;;;;;;5108035;28;20124;-71
2022/09/21 08:08:12;;;;;;;12.38;2.97;;;13.80;99.90;;;;;;5078704;28;20048;-70
2022/09/21 08:10:38;;;;;;;8.77;2.58;;;14.10;99.90;;;;;;5101242;28;20131;-71
2022/09/21 08:13:04;;;;;;;13.52;2.67;;;14.10;99.90;;;;;;5103666;28;20055;-70
2022/09/21 08:15:30;;;;;;;16.08;2.97;;;14.20;99.90;;;;;;5118579;28;20126;-69
2022/09/21 08:17:57;;;;;;;15.73;3.00;;;14.40;99.90;;;;;;5106032;28;20068;-69
2022/09/21 08:20:23;;;;;;;14.10;2.95;;;14.50;99.90;;;;;;5097949;28;20028;-70
2022/09/21 08:22:52;;;;;;;9.57;2.33;;;14.60;99.90;;;;;;5086206;28;20088;-73
2022/09/21 08:25:17;;;;;;;21.88;3.30;;;14.80;99.90;;;;;;5115102;28;20020;-73
2022/09/21 08:27:43;;;;;;;12.13;2.60;;;14.90;99.90;;;;;;5112591;28;20070;-73
2022/09/21 08:30:12;;;;;;;11.20;2.47;;;15.00;99.90;;;;;;5115186;28;20054;-72
2022/09/21 08:32:39;;;;;;;8.77;2.75;;;15.10;99.90;;;;;;5097740;28;20092;-70
2022/09/21 08:35:05;;;;;;;9.48;2.72;;;15.10;99.90;;;;;;5092719;28;20036;-68
2022/09/21 08:37:32;;;;;;;6.25;2.10;;;15.20;99.90;;;;;;5113428;28;20059;-70
2022/09/21 08:39:57;;;;;;;11.25;2.30;;;15.40;99.90;;;;;;5097256;28;20417;-69
2022/09/21 08:42:58;;;;;;;12.23;2.97;;;15.60;99.90;;;;;;5104759;28;20032;-70
2022/09/21 08:45:31;;;;;;;9.95;2.05;;;15.70;99.90;;;;;;5091208;28;20029;-70
2022/09/21 08:48:01;;;;;;;13.93;2.78;;;15.80;99.90;;;;;;5085968;28;20082;-70
2022/09/21 08:50:54;;;;;;;6.25;2.20;;;15.80;99.90;;;;;;5096427;28;20045;-71
2022/09/21 08:53:42;;;;;;;6.88;1.98;;;16.00;99.90;;;;;;5091524;28;20070;-69
2022/09/21 08:56:11;;;;;;;9.35;1.67;;;16.00;99.90;;;;;;5074842;28;20040;-70
2022/09/21 08:58:40;;;;;;;9.00;1.70;;;16.00;99.90;;;;;;5102018;28;20036;-72
2022/09/21 09:01:53;;;;;;;5.30;1.58;;;16.10;99.90;;;;;;5103467;28;20029;-71
2022/09/21 09:04:19;;;;;;;6.18;1.65;;;16.20;99.90;;;;;;5049785;28;20078;-69
2022/09/21 09:07:08;;;;;;;7.97;1.90;;;16.20;99.90;;;;;;5081158;28;20049;-71
2022/09/21 09:09:50;;;;;;;8.50;1.70;;;16.30;99.90;;;;;;5109400;28;20031;-71
2022/09/21 09:12:36;;;;;;;7.95;2.20;;;16.40;99.90;;;;;;5075169;28;20794;-67
2022/09/21 09:15:17;;;;;;;7.22;1.88;;;16.50;99.90;;;;;;5089432;28;20025;-71
2022/09/21 09:17:57;;;;;;;6.07;1.45;;;16.60;99.90;;;;;;5099850;28;20051;-71
2022/09/21 09:20:38;;;;;;;7.57;1.70;;;16.60;99.90;;;;;;5087843;28;20044;-70
2022/09/21 09:23:21;;;;;;;12.02;1.67;;;16.70;99.90;;;;;;5106656;28;20024;-69
2022/09/21 09:25:53;;;;;;;6.65;1.65;;;16.90;99.90;;;;;;5097863;28;20043;-71
2022/09/21 09:28:41;;;;;;;9.90;1.58;;;17.00;99.90;;;;;;5096214;28;20044;-70
2022/09/21 09:31:18;;;;;;;7.68;1.90;;;16.90;99.90;;;;;;5092754;28;20049;-72
2022/09/21 09:33:59;;;;;;;4.43;1.83;;;17.10;99.90;;;;;;5081128;28;20027;-72
2022/09/21 09:36:29;;;;;;;5.22;1.40;;;17.30;99.90;;;;;;5094293;28;20192;-71
2022/09/21 09:38:59;;;;;;;9.32;1.58;;;17.30;99.90;;;;;;5073458;28;20041;-70
2022/09/21 09:41:37;;;;;;;6.75;1.48;;;17.10;99.90;;;;;;5084044;28;20044;-69
2022/09/21 09:44:28;;;;;;;8.30;1.92;;;17.00;99.90;;;;;;5074070;28;20059;-71
2022/09/21 09:47:11;;;;;;;4.88;1.48;;;17.00;99.90;;;;;;5079776;28;20048;-71
2022/09/21 09:50:09;;;;;;;4.97;1.67;;;17.10;99.90;;;;;;5083386;28;20047;-71
2022/09/21 09:52:35;;;;;;;7.90;1.50;;;17.50;99.90;;;;;;5097963;28;20044;-71
2022/09/21 09:55:18;;;;;;;11.23;1.45;;;17.90;99.90;;;;;;5094743;28;20094;-74
2022/09/21 09:57:46;;;;;;;4.47;1.30;;;18.00;99.90;;;;;;5076254;28;20449;-70
2022/09/21 10:00:14;;;;;;;8.10;1.70;;;18.20;99.90;;;;;;5086172;28;20124;-70
2022/09/21 10:02:50;;;;;;;6.88;1.52;;;18.40;99.90;;;;;;5115698;28;20043;-71
2022/09/21 10:05:32;;;;;;;6.55;1.67;;;18.60;99.90;;;;;;5083249;28;20036;-70
2022/09/21 10:07:59;;;;;;;5.07;1.30;;;18.80;96.50;;;;;;5097911;28;20040;-72
2022/09/21 10:10:27;;;;;;;4.88;1.10;;;18.80;99.00;;;;;;5071954;28;20040;-72
2022/09/21 10:13:14;;;;;;;7.57;1.42;;;19.00;99.20;;;;;;5079240;28;20409;-73
2022/09/21 10:15:50;;;;;;;6.30;1.60;;;19.30;99.50;;;;;;5060205;28;20052;-69
2022/09/21 10:18:23;;;;;;;6.95;1.48;;;19.70;98.00;;;;;;5086892;28;20051;-70
2022/09/21 10:20:57;;;;;;;10.57;1.55;;;20.00;97.60;;;;;;5078103;28;20382;-71
2022/09/21 10:23:28;;;;;;;5.50;1.83;;;20.30;97.00;;;;;;5090127;28;20534;-71
2022/09/21 10:26:09;;;;;;;6.85;1.50;;;20.80;97.30;;;;;;5089489;28;20481;-70
2022/09/21 10:28:37;;;;;;;6.30;1.60;;;21.00;95.20;;;;;;5074224;28;20044;-72
2022/09/21 10:31:07;;;;;;;;;;;21.30;93.50;;;;;;5074755;28;20037;-71
2022/09/21 10:33:49;;;;;;;8.80;1.67;;;21.40;92.60;;;;;;5080455;28;19921;-71
2022/09/21 10:36:27;;;;;;;8.05;1.92;;;21.60;91.00;;;;;;5093308;28;20040;-71
2022/09/21 10:38:53;;;;;;;6.25;1.38;;;22.00;87.20;;;;;;5071142;28;20036;-70
2022/09/21 10:41:19;;;;;;;5.82;1.50;;;21.90;90.00;;;;;;5086629;28;20040;-70
2022/09/21 10:43:46;;;;;;;7.28;1.30;;;22.00;86.80;;;;;;5069200;28;20062;-70
2022/09/21 10:46:31;;;;;;;5.00;1.42;;;22.10;85.20;;;;;;5094455;28;20079;-71
2022/09/21 10:48:56;;;;;;;8.93;2.00;;;22.00;85.50;;;;;;5097980;28;20053;-73
2022/09/21 10:51:28;;;;;;;6.63;1.38;;;21.80;84.10;;;;;;5066911;28;20071;-70
2022/09/21 10:53:54;;;;;;;7.88;1.48;;;21.30;83.50;;;;;;5081702;28;20033;-69
2022/09/21 10:56:19;;;;;;;5.80;1.55;;;20.80;83.50;;;;;;5044340;28;20067;-70
2022/09/21 10:59:22;;;;;;;6.82;1.45;;;20.10;85.40;;;;;;5087182;28;20060;-69
2022/09/21 11:01:50;;;;;;;6.47;1.80;;;19.70;85.60;;;;;;5096305;28;20044;-68
2022/09/21 11:04:43;;;;;;;9.93;1.77;;;19.60;90.00;;;;;;5099707;28;20044;-69
2022/09/21 11:07:32;;;;;;;7.55;2.13;;;19.90;90.30;;;;;;5092616;28;20048;-68
2022/09/21 11:10:15;;;;;;;4.40;1.38;;;20.40;89.60;;;;;;5093288;28;20097;-71
2022/09/21 11:12:59;;;;;;;4.50;1.48;;;21.00;90.50;;;;;;5059753;28;20043;-70
2022/09/21 11:15:53;;;;;;;4.57;1.38;;;21.40;87.60;;;;;;5080651;28;20056;-69
2022/09/21 11:18:55;;;;;;;5.82;1.70;;;21.50;83.60;;;;;;5067365;28;20044;-69
2022/09/21 11:21:23;;;;;;;7.38;2.00;;;21.60;83.30;;;;;;5068684;28;20076;-70
2022/09/21 11:24:02;;;;;;;6.20;1.40;;;21.50;84.40;;;;;;5088368;28;20389;-71
2022/09/21 11:26:50;;;;;;;6.50;1.15;;;21.10;83.20;;;;;;5085155;28;20191;-71
2022/09/21 11:29:27;;;;;;;3.03;1.33;;;20.60;82.50;;;;;;5077969;28;20048;-72
2022/09/21 11:32:11;;;;;;;3.80;1.10;;;20.10;84.90;;;;;;5089282;28;20139;-72
2022/09/21 11:35:23;;;;;;;4.40;1.55;;;19.60;83.00;;;;;;5070430;28;20804;-72
2022/09/21 11:38:08;;;;;;;7.30;1.50;;;19.30;84.60;;;;;;5068431;28;20045;-70
2022/09/21 11:41:00;;;;;;;11.40;2.28;;;19.10;87.70;;;;;;5089808;28;20484;-71
2022/09/21 11:43:41;;;;;;;5.05;1.23;;;19.50;86.80;;;;;;5083062;28;20044;-69
2022/09/21 11:46:38;;;;;;;4.68;1.40;;;19.60;87.80;;;;;;5071360;28;20077;-70
2022/09/21 11:49:45;;;;;;;7.03;1.60;;;19.80;85.20;;;;;;5092935;28;20047;-70
2022/09/21 11:52:31;;;;;;;7.28;1.52;;;19.40;85.20;;;;;;5082625;28;20065;-72
2022/09/21 11:55:15;;;;;;;7.55;1.73;;;19.00;87.50;;;;;;5083074;28;20044;-70
2022/09/21 11:57:50;;;;;;;5.47;1.30;;;18.70;88.60;;;;;;5084431;28;20046;-71
2022/09/21 12:00:20;;;;;;;5.88;2.00;;;18.50;87.00;;;;;;5075212;28;20126;-71
2022/09/21 12:03:14;;;;;;;5.25;1.50;;;18.60;90.20;;;;;;5084581;28;20040;-71
2022/09/21 12:06:10;;;;;;;5.00;1.48;;;19.40;90.30;;;;;;5080772;28;20076;-74
2022/09/21 12:09:03;;;;;;;5.93;1.42;;;20.20;85.60;;;;;;5062204;28;20075;-70
2022/09/21 12:12:14;;;;;;;3.92;1.38;;;20.40;83.50;;;;;;5079845;28;20059;-70
2022/09/21 12:14:52;;;;;;;;;;;21.20;83.10;;;;;;5052239;28;20036;-71
2022/09/21 12:17:26;;;;;;;6.18;1.60;;;22.20;83.20;;;;;;5075815;28;19935;-69
2022/09/21 12:20:10;;;;;;;3.08;1.10;;;22.70;82.20;;;;;;5081381;28;20405;-71
2022/09/21 12:22:42;;;;;;;3.13;1.15;;;22.80;79.20;;;;;;5072374;28;20043;-72
2022/09/21 12:25:17;;;;;;;5.63;1.33;;;22.60;78.20;;;;;;5073128;28;20047;-69
2022/09/21 12:28:01;;;;;;;5.47;1.40;;;22.40;79.60;;;;;;5097528;28;20024;-72
2022/09/21 12:30:30;;;;;;;7.05;1.48;;;22.40;77.70;;;;;;5082981;28;20059;-71
2022/09/21 12:33:00;;;;;;;9.75;1.60;;;22.40;77.30;;;;;;5101214;28;20074;-68
2022/09/21 12:35:48;;;;;;;9.10;2.13;;;22.10;75.50;;;;;;5090119;28;20087;-69
2022/09/21 12:41:16;;;;;;;8.60;1.40;;;20.40;77.40;;;;;;4912562;26;20043;-74
2022/09/21 12:44:17;;;;;;;4.50;1.67;;;19.80;80.30;;;;;;5102538;28;20083;-74
2022/09/21 12:46:53;;;;;;;5.57;1.30;;;19.30;81.10;;;;;;5102918;28;20048;-74
2022/09/21 12:49:30;;;;;;;5.05;1.38;;;19.20;80.10;;;;;;5102622;28;20036;-73
2022/09/21 12:52:02;;;;;;;5.75;1.67;;;18.90;79.60;;;;;;5097339;28;20085;-74
2022/09/21 12:54:40;;;;;;;6.22;1.50;;;18.50;81.40;;;;;;5089435;28;20619;-72
2022/09/21 12:57:47;;;;;;;9.50;1.92;;;18.50;81.90;;;;;;5086684;28;20059;-71
2022/09/21 13:00:17;;;;;;;8.20;1.60;;;18.80;80.90;;;;;;5067478;28;20511;-71
2022/09/21 13:03:29;;;;;;;10.95;1.80;;;18.50;81.80;;;;;;5090796;28;20079;-71
2022/09/21 13:06:37;;;;;;;6.03;1.25;;;18.40;83.40;;;;;;5082894;28;20101;-71
2022/09/21 13:09:05;;;;;;;5.80;1.60;;;18.40;83.30;;;;;;5099974;28;20138;-71
2022/09/21 13:11:33;;;;;;;4.55;1.25;;;18.30;84.90;;;;;;5059998;28;20124;-71
2022/09/21 13:14:03;;;;;;;6.05;1.48;;;18.40;83.70;;;;;;5104514;28;20110;-71
2022/09/21 13:16:37;;;;;;;4.22;1.35;;;18.20;85.10;;;;;;5108709;28;20685;-71
2022/09/21 13:19:12;;;;;;;3.95;1.30;;;18.00;84.90;;;;;;5111365;28;20089;-72
2022/09/21 13:21:38;;;;;;;6.88;1.60;;;17.80;85.50;;;;;;5108984;28;20043;-72
2022/09/21 13:24:07;;;;;;;5.15;1.30;;;17.70;86.40;;;;;;5093075;28;20076;-72
2022/09/21 13:26:42;;;;;;;5.82;1.10;;;17.60;86.20;;;;;;5079034;28;20054;-72
2022/09/21 13:29:21;;;;;;;6.88;1.48;;;17.50;86.30;;;;;;5098386;28;20028;-72